Karin S — V2BM6 — position and weather

sailwx.info

Track history (hours):
 
Tides and Currents Weather Stations Pressure Air Temp Water Temp Dewpoint Dewpoint Depression Visibility Wind Speed Wind Dir Waves Ship Positions

Karin S

Last reported at 2017-Feb-19 05:11 UTC. Time now 2017-Feb-20 18:40 UTC.
Position N 39°14' E 001°07'.

Length 141 m; draft 8.7 m.

Type: Cargo ship. MMSI: 304871000.

Date/timePositionNaut miles runAvg speedWind from/ knotsBaromVisibWave heightAir tempDewpointWater temp
2017-Feb-19 05:11N 39°14' E 001°07'912.5
2017-Feb-19 04:28N 39°23' E 001°12'1312.3
2017-Feb-19 03:26N 39°35' E 001°18'1112.4
2017-Feb-19 02:33N 39°45' E 001°23'1312.7
2017-Feb-19 01:33N 39°57' E 001°29'1212.4
2017-Feb-19 00:33N 40°08' E 001°35'1212.5
2017-Feb-18 23:33N 40°20' E 001°41'1312.7
2017-Feb-18 22:33N 40°32' E 001°47'1312.5
2017-Feb-18 21:33N 40°43' E 001°52'1212.5
2017-Feb-18 20:33N 40°55' E 001°58'1212.2
2017-Feb-18 19:33N 41°06' E 002°04'1212.0
2017-Feb-18 18:33N 41°17' E 002°10'2 0.4
2017-Feb-18 14:26N 41°18' E 002°09'0 0.0
2017-Feb-18 13:32N 41°18' E 002°09'0 0.0
2017-Feb-18 12:33N 41°18' E 002°09'0 0.0
2017-Feb-18 11:33N 41°18' E 002°09'0 0.0
2017-Feb-18 10:33N 41°18' E 002°09'0 0.0
2017-Feb-18 09:33N 41°18' E 002°09'0 0.0
2017-Feb-18 08:33N 41°18' E 002°09'0 0.0
2017-Feb-18 07:22N 41°18' E 002°09'0 0.0
2017-Feb-18 06:33N 41°18' E 002°09'0 0.0
2017-Feb-18 05:33N 41°18' E 002°09'0 0.0
2017-Feb-18 04:33N 41°18' E 002°09'0 0.0
2017-Feb-18 03:30N 41°18' E 002°09'0 0.0
2017-Feb-18 02:33N 41°18' E 002°09'0 0.0
2017-Feb-18 01:33N 41°18' E 002°09'0 0.0
2017-Feb-18 00:13N 41°18' E 002°09'0 0.1
2017-Feb-17 23:32N 41°18' E 002°09'2 2.1
2017-Feb-17 22:33N 41°20' E 002°11'0 0.1
2017-Feb-17 21:26N 41°20' E 002°11'0 0.0
2017-Feb-17 20:32N 41°20' E 002°11'0 0.0
2017-Feb-17 15:11N 41°20' E 002°11'0 0.0
2017-Feb-17 13:08N 41°20' E 002°11'  
2017-Feb-14 19:10N 41°20' E 002°11'5 7.5
2017-Feb-14 18:30N 41°15' E 002°11'1010.8
2017-Feb-14 17:33N 41°04' E 002°11'1111.3
2017-Feb-14 16:33N 40°53' E 002°11'1111.6
2017-Feb-14 15:33N 40°42' E 002°11'1111.4
2017-Feb-14 14:33N 40°30' E 002°11'1211.7
2017-Feb-14 13:33N 40°18' E 002°10'1211.8
2017-Feb-14 12:33N 40°07' E 002°10'1211.8
2017-Feb-14 11:33N 39°55' E 002°10'1211.8
2017-Feb-14 10:33N 39°43' E 002°10'1311.8
2017-Feb-14 09:26N 39°30' E 002°12'1011.8
2017-Feb-14 08:33N 39°20' E 002°18'1111.1
2017-Feb-14 07:33N 39°09' E 002°19'1211.5
2017-Feb-14 06:33N 38°58' E 002°23'1711.9
2017-Feb-14 05:07N 38°42' E 002°29'711.7
2017-Feb-14 04:29N 38°35' E 002°31'1111.8
2017-Feb-14 03:32N 38°24' E 002°35'  
Track history (hours):
 
Tides and Currents Weather Stations Pressure Air Temp Water Temp Dewpoint Dewpoint Depression Visibility Wind Speed Wind Dir Waves Ship Positions

Karin S

Last reported at 2017-Feb-19 05:11 UTC. Time now 2017-Feb-20 18:40 UTC.
Position N 39°14' E 001°07'.

Length 141 m; draft 8.7 m.

Type: Cargo ship. MMSI: 304871000.

Date/timePositionNaut miles runAvg speedWind from/ knotsBaromVisibWave heightAir tempDewpointWater temp
2017-Feb-19 05:11N 39°14' E 001°07'912.5
2017-Feb-19 04:28N 39°23' E 001°12'1312.3
2017-Feb-19 03:26N 39°35' E 001°18'1112.4
2017-Feb-19 02:33N 39°45' E 001°23'1312.7
2017-Feb-19 01:33N 39°57' E 001°29'1212.4
2017-Feb-19 00:33N 40°08' E 001°35'1212.5
2017-Feb-18 23:33N 40°20' E 001°41'1312.7
2017-Feb-18 22:33N 40°32' E 001°47'1312.5
2017-Feb-18 21:33N 40°43' E 001°52'1212.5
2017-Feb-18 20:33N 40°55' E 001°58'1212.2
2017-Feb-18 19:33N 41°06' E 002°04'1212.0
2017-Feb-18 18:33N 41°17' E 002°10'2 0.4
2017-Feb-18 14:26N 41°18' E 002°09'0 0.0
2017-Feb-18 13:32N 41°18' E 002°09'0 0.0
2017-Feb-18 12:33N 41°18' E 002°09'0 0.0
2017-Feb-18 11:33N 41°18' E 002°09'0 0.0
2017-Feb-18 10:33N 41°18' E 002°09'0 0.0
2017-Feb-18 09:33N 41°18' E 002°09'0 0.0
2017-Feb-18 08:33N 41°18' E 002°09'0 0.0
2017-Feb-18 07:22N 41°18' E 002°09'0 0.0
2017-Feb-18 06:33N 41°18' E 002°09'0 0.0
2017-Feb-18 05:33N 41°18' E 002°09'0 0.0
2017-Feb-18 04:33N 41°18' E 002°09'0 0.0
2017-Feb-18 03:30N 41°18' E 002°09'0 0.0
2017-Feb-18 02:33N 41°18' E 002°09'0 0.0
2017-Feb-18 01:33N 41°18' E 002°09'0 0.0
2017-Feb-18 00:13N 41°18' E 002°09'0 0.1
2017-Feb-17 23:32N 41°18' E 002°09'2 2.1
2017-Feb-17 22:33N 41°20' E 002°11'0 0.1
2017-Feb-17 21:26N 41°20' E 002°11'0 0.0
2017-Feb-17 20:32N 41°20' E 002°11'0 0.0
2017-Feb-17 15:11N 41°20' E 002°11'0 0.0
2017-Feb-17 13:08N 41°20' E 002°11'  
2017-Feb-14 19:10N 41°20' E 002°11'5 7.5
2017-Feb-14 18:30N 41°15' E 002°11'1010.8
2017-Feb-14 17:33N 41°04' E 002°11'1111.3
2017-Feb-14 16:33N 40°53' E 002°11'1111.6
2017-Feb-14 15:33N 40°42' E 002°11'1111.4
2017-Feb-14 14:33N 40°30' E 002°11'1211.7
2017-Feb-14 13:33N 40°18' E 002°10'1211.8
2017-Feb-14 12:33N 40°07' E 002°10'1211.8
2017-Feb-14 11:33N 39°55' E 002°10'1211.8
2017-Feb-14 10:33N 39°43' E 002°10'1311.8
2017-Feb-14 09:26N 39°30' E 002°12'1011.8
2017-Feb-14 08:33N 39°20' E 002°18'1111.1
2017-Feb-14 07:33N 39°09' E 002°19'1211.5
2017-Feb-14 06:33N 38°58' E 002°23'1711.9
2017-Feb-14 05:07N 38°42' E 002°29'711.7
2017-Feb-14 04:29N 38°35' E 002°31'1111.8
2017-Feb-14 03:32N 38°24' E 002°35'  

Dump ship's entire track history